Time;durP1;ratioP1;P1;durP2;ratioP2;P2;SDS_P1;SDS_P2;PMS_P1;PMS_P2;Temp;Humidity;BMP_temperature;BMP_pressure;BME280_temperature;BME280_humidity;BME280_pressure;Samples;Min_cycle;Max_cycle;Signal;HPM_P1;HPM_P2
2021/11/25 00:00:18;;;;;;;4.20;2.00;;;;;;;12.55;39.25;98628.94;5056478;28;20079;-73
2021/11/25 00:02:44;;;;;;;3.30;2.70;;;;;;;12.61;38.81;98638.84;5039612;28;20078;-74
2021/11/25 00:05:10;;;;;;;2.10;1.90;;;;;;;12.46;38.62;98630.94;5073036;28;20036;-74
2021/11/25 00:07:36;;;;;;;6.63;2.13;;;;;;;12.72;38.57;98641.78;5023789;28;20503;-74
2021/11/25 00:10:07;;;;;;;4.57;2.37;;;;;;;13.04;38.54;98638.50;5039710;28;20399;-71
2021/11/25 00:12:33;;;;;;;3.38;2.03;;;;;;;12.57;38.45;98648.22;5039486;28;20044;-71
2021/11/25 00:14:59;;;;;;;2.87;2.10;;;;;;;12.80;38.34;98651.44;5022976;28;20895;-71
2021/11/25 00:17:24;;;;;;;3.80;1.90;;;;;;;12.46;38.99;98652.25;5056295;28;20134;-72
2021/11/25 00:19:50;;;;;;;3.10;2.10;;;;;;;12.65;38.61;98643.59;5023027;28;20146;-72
2021/11/25 00:22:16;;;;;;;3.70;2.00;;;;;;;12.54;38.52;98644.13;5039477;28;20044;-72
2021/11/25 00:24:42;;;;;;;2.07;1.80;;;;;;;12.36;38.86;98649.09;5039479;28;20415;-73
2021/11/25 00:27:08;;;;;;;3.83;2.00;;;;;;;12.48;38.90;98652.88;5039789;28;20067;-72
2021/11/25 00:29:34;;;;;;;1.93;1.70;;;;;;;12.53;38.48;98652.31;5039277;28;20054;-72
2021/11/25 00:32:00;;;;;;;2.07;1.87;;;;;;;12.50;38.63;98645.50;5039451;28;20769;-72
2021/11/25 00:34:26;;;;;;;1.97;1.77;;;;;;;12.76;38.44;98661.66;5055908;28;20127;-73
2021/11/25 00:36:52;;;;;;;1.83;1.70;;;;;;;12.68;38.19;98669.84;5039142;28;20075;-73
2021/11/25 00:39:18;;;;;;;2.53;1.80;;;;;;;12.66;38.09;98650.53;5072573;28;20043;-73
2021/11/25 00:41:46;;;;;;;1.60;1.50;;;;;;;12.86;38.40;98648.00;5038660;28;20040;-74
2021/11/25 00:44:12;;;;;;;2.27;1.70;;;;;;;12.42;38.67;98659.00;5070766;28;20054;-74
2021/11/25 00:46:38;;;;;;;2.17;1.90;;;;;;;12.42;38.76;98674.13;5037027;28;20036;-74
2021/11/25 00:49:03;;;;;;;4.30;2.10;;;;;;;12.57;38.50;98680.19;5069952;28;20098;-73
2021/11/25 00:51:29;;;;;;;2.87;1.80;;;;;;;12.20;38.92;98600.63;5036564;28;20040;-74
2021/11/25 00:53:55;;;;;;;3.70;1.80;;;;;;;12.54;38.91;98681.41;5020299;28;20543;-75
2021/11/25 00:56:21;;;;;;;1.90;1.80;;;;;;;12.77;38.53;98687.31;5036943;28;20040;-76
2021/11/25 00:58:47;;;;;;;2.10;1.90;;;;;;;12.82;38.13;98686.72;5038239;28;20494;-73
2021/11/25 01:01:13;;;;;;;2.03;1.70;;;;;;;12.59;38.67;98688.81;5022657;28;20117;-76
2021/11/25 01:03:39;;;;;;;4.90;2.00;;;;;;;12.77;38.50;98686.47;5039443;28;20075;-76
2021/11/25 01:06:06;;;;;;;2.17;1.97;;;;;;;13.11;38.13;98700.69;5055785;28;20044;-75
2021/11/25 01:08:32;;;;;;;2.50;1.90;;;;;;;12.82;38.38;98692.84;5022570;28;20898;-74
2021/11/25 01:10:58;;;;;;;3.83;2.00;;;;;;;12.85;38.43;98692.50;5038830;28;20131;-75
2021/11/25 01:13:25;;;;;;;2.17;1.90;;;;;;;12.75;38.29;98697.31;5038986;28;20051;-75
2021/11/25 01:15:51;;;;;;;3.07;1.60;;;;;;;12.98;37.85;98707.72;5022043;28;20105;-75
2021/11/25 01:18:19;;;;;;;1.90;1.63;;;;;;;13.20;37.67;98701.31;5090284;28;20050;-75
2021/11/25 01:20:46;;;;;;;2.17;1.90;;;;;;;13.21;37.71;98710.97;5055380;28;20059;-75
2021/11/25 01:23:16;;;;;;;1.67;1.50;;;;;;;13.14;37.60;98713.63;5056853;28;20048;-76
2021/11/25 01:25:44;;;;;;;1.65;1.55;;;;;;;12.83;37.88;98715.84;5076273;28;20144;-75
2021/11/25 01:28:12;;;;;;;2.17;1.60;;;;;;;12.63;37.86;98722.84;5043113;28;20055;-75
2021/11/25 01:30:43;;;;;;;4.60;1.87;;;;;;;12.90;37.45;98721.22;5043302;28;20097;-75
2021/11/25 01:33:09;;;;;;;2.55;1.40;;;;;;;12.61;38.00;98714.22;5076210;28;20058;-76
2021/11/25 01:35:36;;;;;;;2.07;1.60;;;;;;;12.71;38.23;98709.41;5059032;28;20131;-76
2021/11/25 01:38:06;;;;;;;3.50;1.80;;;;;;;12.96;37.82;98741.75;5075751;28;20492;-75
2021/11/25 01:40:31;;;;;;;2.70;1.60;;;;;;;12.77;37.60;98737.94;5076332;28;20055;-75
2021/11/25 01:42:57;;;;;;;2.80;1.60;;;;;;;12.58;37.64;98746.56;5025947;28;20100;-75
2021/11/25 01:45:25;;;;;;;4.35;1.65;;;;;;;12.93;37.45;98750.94;5059127;28;20503;-76
2021/11/25 01:47:52;;;;;;;2.30;1.43;;;;;;;13.16;37.44;98751.53;5041171;28;20044;-75
2021/11/25 01:50:18;;;;;;;2.13;1.43;;;;;;;12.92;37.90;98757.31;5024817;28;20044;-77
2021/11/25 01:52:45;;;;;;;2.43;1.70;;;;;;;12.63;38.32;98754.81;5058596;28;20141;-78
2021/11/25 01:55:12;;;;;;;1.85;1.40;;;;;;;13.04;38.18;98753.09;5025954;28;20036;-76
2021/11/25 01:57:38;;;;;;;2.28;1.67;;;;;;;12.81;37.94;98765.00;5057578;28;20126;-75
2021/11/25 02:00:14;;;;;;;2.37;1.70;;;;;;;13.58;37.26;98756.72;5057234;28;20562;-75
2021/11/25 02:02:40;;;;;;;2.70;2.10;;;;;;;12.79;37.79;98756.38;5025194;28;20044;-74
2021/11/25 02:05:07;;;;;;;2.40;1.80;;;;;;;12.88;37.98;98772.03;5058128;28;20075;-74
2021/11/25 02:07:32;;;;;;;2.10;1.87;;;;;;;12.95;37.79;98778.25;5041735;28;20529;-76
2021/11/25 02:09:58;;;;;;;5.07;2.10;;;;;;;12.96;37.63;98777.22;5058249;28;20040;-75
2021/11/25 02:12:24;;;;;;;3.95;1.85;;;;;;;12.85;37.63;98752.94;5025149;28;20057;-75
2021/11/25 02:14:50;;;;;;;2.40;1.90;;;;;;;12.99;37.82;98779.47;5041815;28;20054;-76
2021/11/25 02:17:17;;;;;;;4.53;1.52;;;;;;;12.86;38.11;98776.72;5024916;28;20442;-78
2021/11/25 02:19:43;;;;;;;5.10;2.13;;;;;;;12.91;37.90;98774.31;5041755;28;20040;-76
2021/11/25 02:22:09;;;;;;;2.47;2.03;;;;;;;12.89;37.50;98776.34;5057886;28;20044;-74
2021/11/25 02:24:36;;;;;;;2.63;1.77;;;;;;;12.91;37.58;98792.16;5025035;28;20044;-74
2021/11/25 02:27:02;;;;;;;3.77;1.53;;;;;;;12.81;37.33;98754.34;5041314;28;20140;-74
2021/11/25 02:29:28;;;;;;;2.83;1.52;;;;;;;12.87;36.96;98791.69;5093031;28;20040;-75
2021/11/25 02:31:54;;;;;;;1.50;1.40;;;;;;;12.86;37.49;98790.06;5024933;28;20198;-75
2021/11/25 02:34:21;;;;;;;1.70;1.33;;;;;;;13.18;36.90;98802.00;5023963;28;20040;-75
2021/11/25 02:36:48;;;;;;;2.75;1.98;;;;;;;13.12;37.11;98795.63;5024767;28;20407;-80
2021/11/25 02:39:13;;;;;;;3.30;1.58;;;;;;;12.98;37.13;98799.16;5042157;28;20499;-75
2021/11/25 02:41:39;;;;;;;4.97;1.80;;;;;;;12.99;37.51;98800.81;5042123;28;20070;-75
2021/11/25 02:44:06;;;;;;;5.00;1.92;;;;;;;13.01;37.51;98796.16;5042602;28;20083;-76
2021/11/25 02:46:31;;;;;;;1.80;1.70;;;;;;;12.99;37.47;98797.34;5041630;28;20423;-75
2021/11/25 02:48:59;;;;;;;3.80;1.70;;;;;;;12.94;37.49;98795.25;5058307;28;20052;-76
2021/11/25 02:51:31;;;;;;;5.45;1.80;;;;;;;13.13;37.62;98802.59;5041639;28;20052;-74
2021/11/25 02:53:58;;;;;;;1.80;1.60;;;;;;;13.01;37.62;98809.47;5074290;28;20039;-75
2021/11/25 02:56:26;;;;;;;6.37;1.80;;;;;;;12.98;37.49;98815.16;5057719;28;20051;-75
2021/11/25 02:58:54;;;;;;;2.07;1.70;;;;;;;12.59;37.76;98788.16;5074082;28;20435;-76
2021/11/25 03:01:32;;;;;;;4.60;1.80;;;;;;;13.18;37.17;98815.34;5057445;28;20101;-77
2021/11/25 03:04:00;;;;;;;4.40;1.80;;;;;;;13.07;37.42;98803.38;5057496;28;20482;-77
2021/11/25 03:06:26;;;;;;;4.20;1.70;;;;;;;13.03;37.25;98819.94;5074214;28;20050;-76
2021/11/25 03:08:53;;;;;;;3.33;1.80;;;;;;;13.21;37.20;98820.28;5057391;28;20187;-75
2021/11/25 03:11:22;;;;;;;2.97;1.67;;;;;;;13.31;37.33;98818.94;5040937;28;20044;-80
2021/11/25 03:13:50;;;;;;;4.73;2.27;;;;;;;13.17;37.26;98829.69;5074242;28;20496;-76
2021/11/25 03:16:17;;;;;;;2.17;1.50;;;;;;;13.08;37.04;98813.03;5071126;28;20518;-76
2021/11/25 03:18:43;;;;;;;1.90;1.70;;;;;;;12.84;37.54;98823.25;5037498;28;20082;-75
2021/11/25 03:21:10;;;;;;;4.47;1.60;;;;;;;12.78;37.58;98819.50;5020687;28;20048;-76
2021/11/25 03:23:37;;;;;;;2.15;1.63;;;;;;;13.08;37.28;98812.19;5054543;28;20475;-76
2021/11/25 03:26:05;;;;;;;2.30;1.80;;;;;;;12.89;37.17;98744.38;5053874;28;20048;-76
2021/11/25 03:28:32;;;;;;;4.10;1.60;;;;;;;13.21;37.07;98817.59;5037471;28;20047;-76
2021/11/25 03:30:58;;;;;;;1.90;1.70;;;;;;;12.99;37.28;98813.34;5018760;28;20492;-77
2021/11/25 03:33:31;;;;;;;4.37;1.80;;;;;;;13.57;36.95;98820.94;5034738;28;20048;-77
2021/11/25 03:35:59;;;;;;;1.95;1.52;;;;;;;13.24;37.29;98823.38;5051551;28;20193;-77
2021/11/25 03:38:25;;;;;;;2.97;2.10;;;;;;;12.87;37.54;98825.53;5068516;28;20078;-76
2021/11/25 03:40:52;;;;;;;5.57;2.03;;;;;;;13.03;37.16;98826.09;5018958;28;20354;-79
2021/11/25 03:43:18;;;;;;;2.47;1.90;;;;;;;12.94;37.32;98824.56;5070863;28;20376;-76
2021/11/25 03:45:45;;;;;;;4.10;1.83;;;;;;;12.85;37.35;98801.75;5069156;28;20052;-76
2021/11/25 03:48:13;;;;;;;2.83;1.97;;;;;;;12.68;37.70;98835.00;5037141;28;20049;-77
2021/11/25 03:50:39;;;;;;;2.53;2.00;;;;;;;12.95;37.35;98833.38;5053973;28;20048;-75
2021/11/25 03:53:06;;;;;;;3.72;2.60;;;;;;;13.20;37.30;98822.13;5019957;28;20056;-76
2021/11/25 03:55:32;;;;;;;2.70;2.40;;;;;;;13.06;36.89;98844.38;5069875;28;20132;-75
2021/11/25 03:57:58;;;;;;;3.80;2.13;;;;;;;12.99;37.15;98854.13;5053010;28;20131;-75
2021/11/25 04:00:25;;;;;;;7.13;2.30;;;;;;;13.06;36.98;98854.22;5020204;28;20040;-76
2021/11/25 04:02:52;;;;;;;2.40;2.10;;;;;;;13.30;37.34;98854.59;5037008;28;20507;-75
2021/11/25 04:05:18;;;;;;;2.42;2.00;;;;;;;12.84;37.15;98820.59;5053677;28;20476;-74
2021/11/25 04:07:44;;;;;;;3.27;2.07;;;;;;;13.05;37.34;98872.03;5020187;28;20040;-75
2021/11/25 04:10:13;;;;;;;2.80;2.00;;;;;;;13.37;36.93;98862.66;5036690;28;20147;-76
2021/11/25 04:12:39;;;;;;;2.92;2.00;;;;;;;13.06;36.81;98870.22;5036159;28;20492;-76
2021/11/25 04:15:06;;;;;;;2.53;2.00;;;;;;;13.49;36.51;98871.78;5036734;28;20048;-76
2021/11/25 04:17:32;;;;;;;3.20;2.30;;;;;;;13.07;36.82;98848.69;5023563;28;20044;-75
2021/11/25 04:19:58;;;;;;;12.60;2.25;;;;;;;13.07;36.52;98869.19;5071904;28;20059;-72
2021/11/25 04:22:23;;;;;;;3.53;1.80;;;;;;;13.11;36.51;98887.28;5055699;28;20039;-68
2021/11/25 04:24:50;;;;;;;5.97;2.63;;;;;;;12.84;36.63;98817.94;5090492;28;20055;-73
2021/11/25 04:27:16;;;;;;;4.40;1.93;;;;;;;13.10;36.60;98880.28;5072419;28;20044;-76
2021/11/25 04:29:46;;;;;;;3.40;2.30;;;;;;;12.55;37.17;98850.84;5090018;28;20051;-76
2021/11/25 04:37:43;;;;;;;4.63;1.80;;;;;;;13.41;36.14;98895.91;5090072;28;20117;-70
2021/11/25 04:40:10;;;;;;;2.92;1.70;;;;;;;13.20;36.26;98887.97;5071881;28;20057;-71
2021/11/25 04:42:36;;;;;;;2.97;2.23;;;;;;;13.00;36.62;98893.13;5071848;28;20047;-71
2021/11/25 04:45:02;;;;;;;2.80;1.67;;;;;;;13.20;35.89;98901.28;5089871;28;20044;-71
2021/11/25 04:47:28;;;;;;;2.93;1.70;;;;;;;13.08;36.05;98909.00;5089909;28;20182;-70
2021/11/25 04:49:54;;;;;;;4.57;1.90;;;;;;;12.87;36.81;98908.94;5072171;28;20048;-73
2021/11/25 04:52:21;;;;;;;2.13;1.60;;;;;;;12.77;36.64;98900.47;5067640;28;20066;-72
2021/11/25 04:54:47;;;;;;;2.20;1.77;;;;;;;12.91;36.67;98910.25;5088682;28;20098;-73
2021/11/25 04:57:13;;;;;;;2.72;2.05;;;;;;;12.99;36.64;98920.75;5070942;28;20457;-72
2021/11/25 04:59:39;;;;;;;2.23;2.00;;;;;;;12.85;37.00;98913.66;5073974;28;20070;-70
2021/11/25 05:02:04;;;;;;;2.05;1.80;;;;;;;12.82;36.88;98916.69;5093114;28;20092;-71
2021/11/25 05:04:31;;;;;;;4.07;2.40;;;;;;;12.92;36.98;98917.22;5057409;28;20040;-69
2021/11/25 05:06:57;;;;;;;2.20;2.00;;;;;;;13.17;37.04;98929.19;5074297;28;20139;-70
2021/11/25 05:09:23;;;;;;;3.33;2.30;;;;;;;12.80;37.34;98917.91;5074755;28;20054;-72
2021/11/25 05:11:49;;;;;;;2.75;2.25;;;;;;;12.71;37.49;98921.69;5072883;28;20040;-70
2021/11/25 05:14:15;;;;;;;4.87;2.70;;;;;;;12.91;37.47;98918.25;5090812;28;20040;-72
2021/11/25 05:16:41;;;;;;;9.10;2.50;;;;;;;13.07;37.15;98919.81;5068855;28;20455;-71
2021/11/25 05:19:07;;;;;;;7.28;2.60;;;;;;;12.85;37.18;98916.34;5035635;28;20567;-71
2021/11/25 05:21:33;;;;;;;3.22;2.45;;;;;;;13.12;37.34;98926.25;5070189;28;20123;-71
2021/11/25 05:23:59;;;;;;;6.90;2.60;;;;;;;12.82;37.39;98932.66;5069642;28;20056;-72
2021/11/25 05:26:25;;;;;;;4.50;2.80;;;;;;;12.83;37.51;98938.84;5070556;28;20052;-66
2021/11/25 05:28:51;;;;;;;3.38;2.42;;;;;;;12.85;37.33;98937.66;5073449;28;20044;-72
2021/11/25 05:31:16;;;;;;;3.35;2.70;;;;;;;12.80;37.21;98894.75;5072646;28;20135;-71
2021/11/25 05:33:42;;;;;;;3.17;2.70;;;;;;;13.07;36.96;98949.97;5070950;28;20547;-73
2021/11/25 05:36:08;;;;;;;4.80;3.17;;;;;;;13.06;37.44;98944.84;5038214;28;20040;-71
2021/11/25 05:38:34;;;;;;;3.45;3.03;;;;;;;12.68;38.05;98946.91;5072344;28;20211;-70
2021/11/25 05:41:00;;;;;;;5.10;3.03;;;;;;;12.88;37.86;98944.44;5072621;28;20060;-70
2021/11/25 05:43:25;;;;;;;3.63;2.95;;;;;;;13.08;37.19;98949.00;5071108;28;20047;-67
2021/11/25 05:45:54;;;;;;;5.70;3.08;;;;;;;13.22;37.16;98945.41;5072243;28;20044;-70
2021/11/25 05:48:20;;;;;;;4.20;2.97;;;;;;;13.11;37.39;98956.59;5071949;28;20048;-70
2021/11/25 05:50:45;;;;;;;6.75;3.00;;;;;;;13.13;37.38;98967.09;5054331;28;20048;-70
2021/11/25 05:53:17;;;;;;;3.95;3.30;;;;;;;13.21;36.93;98954.44;5072481;28;20044;-72
2021/11/25 05:55:43;;;;;;;3.77;3.03;;;;;;;13.22;37.15;98963.28;5072239;28;20036;-72
2021/11/25 05:58:09;;;;;;;3.57;3.07;;;;;;;13.30;36.71;98961.28;5071849;28;20047;-71
2021/11/25 06:00:35;;;;;;;4.07;3.20;;;;;;;12.99;37.40;98963.41;5053803;28;20049;-69
2021/11/25 06:03:00;;;;;;;5.63;3.00;;;;;;;12.87;37.76;98956.13;5071854;28;20101;-70
2021/11/25 06:05:27;;;;;;;6.97;2.90;;;;;;;13.24;37.23;98950.53;5070958;28;20123;-66
2021/11/25 06:07:53;;;;;;;4.93;3.10;;;;;;;12.89;37.50;98959.41;5071028;28;20036;-71
2021/11/25 06:10:21;;;;;;;4.68;3.30;;;;;;;13.35;37.46;98960.69;5070547;28;20044;-71
2021/11/25 06:12:48;;;;;;;5.18;3.15;;;;;;;13.26;37.48;98968.03;5037014;28;20923;-72
2021/11/25 06:15:14;;;;;;;5.32;3.70;;;;;;;13.43;37.15;98961.41;5037404;28;20032;-71
2021/11/25 06:17:40;;;;;;;4.73;3.27;;;;;;;13.13;37.39;98954.56;5057142;28;20054;-72
2021/11/25 06:20:11;;;;;;;5.00;3.20;;;;;;;13.47;36.99;98969.84;5073997;28;20035;-70
2021/11/25 06:22:39;;;;;;;4.70;3.30;;;;;;;13.56;37.01;98966.84;5073749;28;20039;-71
2021/11/25 06:25:05;;;;;;;4.10;3.08;;;;;;;13.31;37.23;98967.44;5073506;28;20048;-73
2021/11/25 06:27:31;;;;;;;5.20;3.40;;;;;;;13.10;37.30;98968.25;5056949;28;20495;-73
2021/11/25 06:29:57;;;;;;;4.93;3.40;;;;;;;13.18;37.30;98960.16;5073965;28;20077;-72
2021/11/25 06:32:23;;;;;;;3.72;2.97;;;;;;;13.20;37.08;98979.47;5091961;28;20043;-71
2021/11/25 06:34:48;;;;;;;9.07;3.73;;;;;;;13.34;37.09;98975.91;5091991;28;20044;-72
2021/11/25 06:37:14;;;;;;;6.13;3.63;;;;;;;13.15;37.26;98973.88;5073887;28;20405;-71
2021/11/25 06:39:40;;;;;;;7.25;3.30;;;;;;;12.76;37.77;98970.72;5091503;28;20109;-69
2021/11/25 06:42:05;;;;;;;6.82;3.25;;;;;;;13.18;37.15;98967.31;5073493;28;20040;-72
2021/11/25 06:44:31;;;;;;;6.05;3.60;;;;;;;13.17;37.46;98984.34;5091531;28;20048;-72
2021/11/25 06:46:58;;;;;;;5.68;3.60;;;;;;;13.39;37.13;98975.31;5091575;28;20055;-70
2021/11/25 06:49:24;;;;;;;7.88;3.92;;;;;;;13.27;36.85;98958.16;5056944;28;20522;-70
2021/11/25 06:51:49;;;;;;;5.10;3.58;;;;;;;13.35;37.18;98982.03;5067256;28;20060;-72
2021/11/25 06:54:15;;;;;;;4.43;3.55;;;;;;;13.43;36.97;98969.41;5088296;28;20048;-72
2021/11/25 06:56:41;;;;;;;4.40;3.58;;;;;;;13.36;37.05;98984.50;5049575;28;20048;-72
2021/11/25 06:59:07;;;;;;;5.55;3.53;;;;;;;13.50;36.95;98980.13;5052113;28;20403;-71
2021/11/25 07:01:33;;;;;;;5.03;3.90;;;;;;;13.56;37.08;98979.38;5070787;28;20060;-71
2021/11/25 07:03:58;;;;;;;6.50;3.80;;;;;;;13.40;36.86;98985.81;5052916;28;20530;-70
2021/11/25 07:06:24;;;;;;;6.15;3.30;;;;;;;13.36;36.96;98984.50;5070866;28;20361;-71
2021/11/25 07:08:50;;;;;;;6.43;3.10;;;;;;;13.49;37.00;98978.47;5052322;28;20048;-69
2021/11/25 07:11:16;;;;;;;4.35;3.30;;;;;;;13.60;36.96;98977.97;5070459;28;20040;-70
2021/11/25 07:13:41;;;;;;;8.25;3.20;;;;;;;13.56;36.84;98952.69;5070740;28;20098;-71
2021/11/25 07:16:07;;;;;;;6.55;2.92;;;;;;;13.73;36.35;98985.25;5069534;28;20052;-70
2021/11/25 07:18:33;;;;;;;3.20;2.70;;;;;;;13.80;36.46;98989.63;5052197;28;20083;-72
2021/11/25 07:20:59;;;;;;;4.53;2.85;;;;;;;13.78;36.50;98977.50;5068558;28;20498;-70
2021/11/25 07:23:25;;;;;;;6.80;2.78;;;;;;;13.97;36.33;99004.31;5070190;28;20044;-70
2021/11/25 07:25:52;;;;;;;6.75;3.05;;;;;;;13.98;36.55;99005.97;5051944;28;20558;-71
2021/11/25 07:28:17;;;;;;;7.10;2.78;;;;;;;13.66;36.32;98973.69;5052864;28;20082;-70
2021/11/25 07:30:44;;;;;;;9.68;2.92;;;;;;;13.66;36.28;99001.19;5052605;28;20076;-71
2021/11/25 07:33:10;;;;;;;6.95;3.25;;;;;;;13.65;36.80;99004.06;5019272;28;20040;-70
2021/11/25 07:35:36;;;;;;;5.78;2.40;;;;;;;13.84;36.20;98996.19;5052030;28;20055;-70
2021/11/25 07:38:03;;;;;;;5.78;2.50;;;;;;;13.96;36.09;98996.50;5052249;28;20481;-70
2021/11/25 07:40:29;;;;;;;5.35;2.80;;;;;;;13.74;36.20;99009.06;5052135;28;20053;-69
2021/11/25 07:42:55;;;;;;;3.30;2.30;;;;;;;13.87;36.07;99024.38;5070634;28;20048;-70
2021/11/25 07:45:21;;;;;;;9.60;2.67;;;;;;;13.78;36.21;99021.00;5070103;28;20044;-70
2021/11/25 07:47:47;;;;;;;5.80;2.85;;;;;;;13.76;36.35;99000.88;5035588;28;20258;-71
2021/11/25 07:50:15;;;;;;;3.42;2.55;;;;;;;13.93;36.96;99018.25;5070122;28;20524;-70
2021/11/25 07:52:41;;;;;;;4.22;2.63;;;;;;;13.79;36.59;99030.69;5069943;28;20046;-70
2021/11/25 07:55:09;;;;;;;6.53;3.00;;;;;;;14.18;36.34;99022.09;5069949;28;20040;-68
2021/11/25 07:57:35;;;;;;;4.60;2.65;;;;;;;13.99;36.26;99020.94;5073087;28;20075;-72
2021/11/25 08:00:03;;;;;;;5.88;2.97;;;;;;;14.14;36.16;99023.53;5021484;28;20072;-70
2021/11/25 08:02:38;;;;;;;6.25;2.92;;;;;;;13.81;36.16;98998.47;5069625;28;20086;-71
2021/11/25 08:05:05;;;;;;;6.38;2.97;;;;;;;13.64;37.06;99021.09;5051924;28;20172;-70
2021/11/25 08:07:30;;;;;;;5.05;3.00;;;;;;;13.47;37.24;99017.84;5051835;28;20458;-70
2021/11/25 08:09:56;;;;;;;6.78;3.00;;;;;;;13.65;36.79;99031.56;5069655;28;20107;-72
2021/11/25 08:12:22;;;;;;;4.88;3.10;;;;;;;13.57;37.33;99031.72;5069536;28;20047;-72
2021/11/25 08:14:48;;;;;;;6.25;3.25;;;;;;;13.65;36.99;99025.41;5051463;28;20044;-70
2021/11/25 08:17:13;;;;;;;6.60;3.70;;;;;;;13.88;36.87;99031.34;5034616;28;20049;-71
2021/11/25 08:19:42;;;;;;;5.32;2.85;;;;;;;13.70;36.88;99020.31;5034485;28;20492;-72
2021/11/25 08:22:08;;;;;;;5.03;2.70;;;;;;;13.22;37.45;99009.41;5055720;28;20036;-69
2021/11/25 08:24:33;;;;;;;5.15;2.90;;;;;;;13.40;37.52;98990.31;5054825;28;20060;-70
2021/11/25 08:26:59;;;;;;;4.93;3.33;;;;;;;13.85;36.85;99005.88;5038050;28;20044;-70
2021/11/25 08:29:25;;;;;;;4.68;3.20;;;;;;;13.94;36.71;99025.22;5071510;28;20057;-71
2021/11/25 08:31:51;;;;;;;4.35;2.97;;;;;;;14.00;36.40;99032.47;5089117;28;20040;-72
2021/11/25 08:34:17;;;;;;;9.10;4.45;;;;;;;14.08;36.49;99025.16;5054570;28;20761;-70
2021/11/25 08:36:43;;;;;;;6.57;3.13;;;;;;;13.98;35.98;99021.97;5037987;28;20054;-71
2021/11/25 08:39:09;;;;;;;8.00;3.20;;;;;;;14.25;36.37;99031.88;5054717;28;20055;-72
2021/11/25 08:41:35;;;;;;;10.02;3.35;;;;;;;14.06;36.41;99026.34;5054693;28;20048;-71
2021/11/25 08:44:00;;;;;;;5.07;2.80;;;;;;;14.00;36.19;99024.44;5089198;28;20403;-70
2021/11/25 08:46:26;;;;;;;6.50;3.13;;;;;;;14.30;35.89;99024.06;5054799;28;20492;-71
2021/11/25 08:48:52;;;;;;;5.38;3.17;;;;;;;14.55;35.47;99030.59;5054402;28;20199;-71
2021/11/25 08:51:18;;;;;;;5.85;2.83;;;;;;;14.41;35.79;99018.19;5054466;28;20045;-71
2021/11/25 08:53:44;;;;;;;6.20;3.60;;;;;;;14.39;35.84;99030.91;5065236;28;20039;-72
2021/11/25 08:56:10;;;;;;;6.80;3.63;;;;;;;14.43;35.70;99034.84;5053838;28;20051;-71
2021/11/25 08:58:37;;;;;;;7.07;3.30;;;;;;;14.69;35.31;99031.47;5088884;28;20044;-72
2021/11/25 09:01:03;;;;;;;5.30;3.20;;;;;;;14.40;35.72;99019.22;5070482;28;20126;-71
2021/11/25 09:03:30;;;;;;;4.00;3.00;;;;;;;13.51;37.13;99025.28;5054345;28;20509;-71
2021/11/25 09:05:58;;;;;;;5.40;3.45;;;;;;;13.98;37.09;99031.81;5070912;28;20070;-72
2021/11/25 09:08:23;;;;;;;11.35;6.40;;;;;;;14.06;36.41;99016.50;5089165;28;20568;-71
2021/11/25 09:10:50;;;;;;;6.50;3.53;;;;;;;14.08;36.24;99008.28;5053788;28;20044;-72
2021/11/25 09:13:15;;;;;;;6.68;3.60;;;;;;;14.08;36.37;99013.63;5053697;28;20036;-72
2021/11/25 09:15:42;;;;;;;7.97;3.30;;;;;;;13.96;36.28;98997.31;5070389;28;20396;-70
2021/11/25 09:18:09;;;;;;;6.93;3.50;;;;;;;13.98;36.14;98999.78;5070779;28;20047;-68
2021/11/25 09:20:37;;;;;;;6.03;4.00;;;;;;;13.80;37.10;99018.13;5070567;28;20036;-69
2021/11/25 09:23:13;;;;;;;6.15;3.92;;;;;;;14.10;36.53;98976.88;5070631;28;20112;-71
2021/11/25 09:25:42;;;;;;;7.53;3.88;;;;;;;14.02;36.51;99017.09;5070453;28;20518;-70
2021/11/25 09:28:09;;;;;;;6.18;3.88;;;;;;;14.20;36.53;99017.41;5054098;28;20044;-71
2021/11/25 09:30:35;;;;;;;6.65;3.85;;;;;;;14.20;36.36;99015.56;5053740;28;20079;-73
2021/11/25 09:33:01;;;;;;;9.32;3.53;;;;;;;14.02;36.44;98979.69;5053318;28;20514;-71
2021/11/25 09:35:27;;;;;;;4.88;3.63;;;;;;;13.89;37.11;99015.13;5071107;28;20044;-73
2021/11/25 09:37:53;;;;;;;6.93;3.70;;;;;;;14.05;36.71;99014.03;5054434;28;20039;-70
2021/11/25 09:40:26;;;;;;;11.20;3.83;;;;;;;14.36;36.26;98988.56;5071273;28;20047;-70
2021/11/25 09:42:56;;;;;;;8.57;3.03;;;;;;;14.51;36.16;99007.13;5070869;28;20048;-71
2021/11/25 09:45:23;;;;;;;5.00;3.58;;;;;;;13.91;36.55;98998.94;5073356;28;20055;-70
2021/11/25 09:47:51;;;;;;;5.32;3.05;;;;;;;14.19;36.77;98995.19;5056862;28;20046;-70
2021/11/25 09:50:19;;;;;;;6.97;3.38;;;;;;;14.79;36.15;99026.59;5092132;28;20039;-71
2021/11/25 09:52:45;;;;;;;5.38;3.40;;;;;;;14.14;36.39;99024.38;5091826;28;20087;-69
2021/11/25 09:55:11;;;;;;;5.78;3.60;;;;;;;14.10;36.49;99023.09;5057299;28;20066;-71
2021/11/25 09:57:37;;;;;;;6.70;3.83;;;;;;;14.23;36.62;99019.69;5092287;28;20040;-67
2021/11/25 10:00:04;;;;;;;6.25;3.60;;;;;;;14.49;36.28;99012.69;5057102;28;20047;-72
2021/11/25 10:02:38;;;;;;;9.50;4.15;;;;;;;13.78;37.43;99017.53;5026952;28;20036;-72
2021/11/25 10:05:04;;;;;;;6.68;3.67;;;;;;;13.79;37.75;99021.84;5074011;28;20048;-71
2021/11/25 10:07:36;;;;;;;5.40;3.45;;;;;;;14.30;36.82;99020.59;5040553;28;20031;-71
2021/11/25 10:10:27;;;;;;;9.88;3.72;;;;;;;14.65;36.43;99022.22;5073765;28;20150;-71
2021/11/25 10:12:59;;;;;;;8.32;3.33;;;;;;;14.45;36.78;99010.59;5073180;28;20503;-72
2021/11/25 10:15:35;;;;;;;6.53;3.58;;;;;;;14.25;36.97;99015.00;5074172;28;20048;-75
2021/11/25 10:18:13;;;;;;;7.50;4.20;;;;;;;14.60;36.47;99019.31;5056512;28;20140;-71
2021/11/25 10:20:41;;;;;;;6.18;3.67;;;;;;;14.57;36.57;99017.03;5040150;28;20488;-72
2021/11/25 10:23:13;;;;;;;6.55;3.53;;;;;;;14.13;36.62;98977.28;5091447;28;20132;-74
2021/11/25 10:25:40;;;;;;;5.25;3.10;;;;;;;14.12;36.58;99012.22;5024075;28;20059;-71
2021/11/25 10:28:07;;;;;;;5.10;3.20;;;;;;;13.91;36.67;98975.72;5073293;28;20099;-72
2021/11/25 10:30:36;;;;;;;5.85;3.15;;;;;;;14.19;36.72;98979.19;5056707;28;20040;-70
2021/11/25 10:33:02;;;;;;;4.90;3.38;;;;;;;14.14;36.73;98999.50;5091338;28;20043;-72
2021/11/25 10:35:43;;;;;;;4.90;3.22;;;;;;;14.84;35.77;99003.56;5073338;28;20131;-68
2021/11/25 10:40:44;;;;;;;9.60;5.22;;;;;;;14.23;36.37;98987.63;5073980;28;20488;-71
2021/11/25 10:43:20;;;;;;;5.82;3.45;;;;;;;14.94;35.76;98985.31;5073615;28;20074;-71
2021/11/25 10:45:48;;;;;;;5.65;3.03;;;;;;;14.58;36.27;98986.59;5073328;28;20040;-73
2021/11/25 10:48:29;;;;;;;6.38;3.00;;;;;;;15.00;35.24;98968.47;5089758;28;20051;-71
2021/11/25 10:50:55;;;;;;;5.72;3.15;;;;;;;14.47;35.93;98990.66;5056241;28;20067;-71
2021/11/25 10:53:21;;;;;;;5.55;3.08;;;;;;;14.04;36.31;98975.00;5050719;28;20074;-70
2021/11/25 10:55:47;;;;;;;4.78;2.95;;;;;;;14.43;36.15;98973.41;5055100;28;20113;-73
2021/11/25 10:58:13;;;;;;;4.30;2.95;;;;;;;14.20;36.33;98977.34;5089433;28;20113;-71
2021/11/25 11:00:42;;;;;;;5.13;2.90;;;;;;;14.55;36.22;98970.97;5055736;28;20044;-71
2021/11/25 11:03:13;;;;;;;7.13;3.17;;;;;;;14.91;35.62;98985.69;5072727;28;20066;-73
2021/11/25 11:05:52;;;;;;;5.47;3.08;;;;;;;14.98;35.44;98983.03;5072587;28;20139;-71
2021/11/25 11:08:19;;;;;;;7.43;2.95;;;;;;;14.54;36.25;98988.88;5090839;28;20235;-72
2021/11/25 11:10:55;;;;;;;5.90;3.20;;;;;;;14.86;35.90;98976.63;5090256;28;20056;-71
2021/11/25 11:20:49;;;;;;;4.95;3.00;;;;;;;14.52;36.21;98982.88;5090138;28;20610;-72
2021/11/25 11:23:24;;;;;;;6.07;2.88;;;;;;;14.67;36.25;98980.06;5055694;28;20136;-73
2021/11/25 11:25:52;;;;;;;5.47;3.38;;;;;;;14.38;36.41;98985.69;5072307;28;20058;-72
2021/11/25 11:28:18;;;;;;;5.72;3.30;;;;;;;14.00;36.80;98984.41;5072692;28;20050;-71
2021/11/25 11:30:45;;;;;;;5.57;3.45;;;;;;;14.19;36.53;98986.38;5072323;28;20036;-71
2021/11/25 11:33:12;;;;;;;5.03;3.05;;;;;;;14.02;36.85;98956.50;5090246;28;20567;-72
2021/11/25 11:35:40;;;;;;;5.97;3.08;;;;;;;14.56;36.10;98957.41;5055457;28;20055;-72
2021/11/25 11:38:08;;;;;;;6.32;3.22;;;;;;;14.41;36.57;98983.44;5072444;28;20052;-70
2021/11/25 11:40:37;;;;;;;4.68;3.05;;;;;;;14.61;36.10;98981.69;5039269;28;20134;-72
2021/11/25 11:43:03;;;;;;;4.70;3.25;;;;;;;14.12;36.98;98990.84;5071507;28;20207;-69
2021/11/25 11:45:33;;;;;;;6.18;2.97;;;;;;;14.79;36.00;98992.66;5055827;28;20055;-69
2021/11/25 11:48:02;;;;;;;5.68;2.97;;;;;;;14.58;36.17;98992.78;5055529;28;20098;-69